Time;durP1;ratioP1;P1;durP2;ratioP2;P2;SDS_P1;SDS_P2;PMS_P1;PMS_P2;Temp;Humidity;BMP_temperature;BMP_pressure;BME280_temperature;BME280_humidity;BME280_pressure;Samples;Min_cycle;Max_cycle;Signal;HPM_P1;HPM_P2
2022/06/07 00:01:06;;;;;;;9.10;7.53;;;13.70;99.90;;;;;;5038861;28;20383;-84
2022/06/07 00:03:32;;;;;;;7.40;6.70;;;13.70;99.90;;;;;;5045456;28;20027;-84
2022/06/07 00:05:59;;;;;;;6.25;5.63;;;13.70;99.90;;;;;;5042062;28;20039;-83
2022/06/07 00:08:25;;;;;;;8.50;7.45;;;13.70;99.90;;;;;;5038720;28;20614;-83
2022/06/07 00:10:52;;;;;;;7.15;6.32;;;13.70;99.90;;;;;;5058304;28;20467;-83
2022/06/07 00:13:19;;;;;;;5.63;5.13;;;13.70;99.90;;;;;;5076330;28;20028;-84
2022/06/07 00:15:47;;;;;;;9.18;7.07;;;13.80;99.90;;;;;;5048717;28;20024;-84
2022/06/07 00:18:14;;;;;;;8.25;7.43;;;13.80;99.90;;;;;;5040202;28;20395;-83
2022/06/07 00:20:42;;;;;;;9.07;7.38;;;13.80;99.90;;;;;;5080687;28;20029;-83
2022/06/07 00:23:14;;;;;;;10.90;9.75;;;13.80;99.90;;;;;;5048021;28;20047;-84
2022/06/07 00:25:43;;;;;;;10.03;8.60;;;13.80;99.90;;;;;;5045808;28;20407;-84
2022/06/07 00:28:10;;;;;;;12.45;9.77;;;13.80;99.90;;;;;;5061552;28;20028;-84
2022/06/07 00:30:36;;;;;;;13.60;11.68;;;13.80;99.90;;;;;;5065897;28;20037;-83
2022/06/07 00:33:03;;;;;;;19.38;16.50;;;13.80;99.90;;;;;;5041261;28;20048;-85
2022/06/07 00:35:30;;;;;;;18.27;15.43;;;13.80;99.90;;;;;;5058252;28;20039;-84
2022/06/07 00:37:57;;;;;;;18.17;16.27;;;13.80;99.90;;;;;;5042048;28;20384;-84
2022/06/07 00:40:23;;;;;;;14.02;12.25;;;13.80;99.90;;;;;;5049576;28;20036;-84
2022/06/07 00:42:49;;;;;;;23.05;17.92;;;13.80;99.90;;;;;;5070125;28;20024;-84
2022/06/07 00:45:19;;;;;;;19.08;16.90;;;13.80;99.90;;;;;;5051877;28;20028;-84
2022/06/07 00:47:47;;;;;;;19.25;17.20;;;13.80;99.90;;;;;;5077968;28;20028;-84
2022/06/07 00:50:25;;;;;;;18.10;15.43;;;13.80;99.90;;;;;;5063885;28;20028;-84
2022/06/07 00:52:51;;;;;;;19.50;17.20;;;13.80;99.90;;;;;;5062769;28;20398;-84
2022/06/07 00:55:18;;;;;;;18.65;15.85;;;13.90;99.90;;;;;;5049141;28;20016;-84
2022/06/07 00:57:48;;;;;;;22.55;17.25;;;13.90;99.90;;;;;;5058135;28;20032;-83
2022/06/07 01:00:25;;;;;;;21.23;18.25;;;13.90;99.90;;;;;;5049182;28;20048;-84
2022/06/07 01:02:55;;;;;;;19.80;17.30;;;13.90;99.90;;;;;;5063270;28;20374;-84
2022/06/07 01:05:22;;;;;;;21.42;17.63;;;13.90;99.90;;;;;;5050274;28;20020;-84
2022/06/07 01:10:43;;;;;;;20.92;16.90;;;14.00;99.90;;;;;;5061888;28;20028;-84
2022/06/07 01:13:19;;;;;;;23.02;19.05;;;13.90;99.90;;;;;;5047892;28;20035;-83
2022/06/07 01:15:47;;;;;;;19.42;16.98;;;14.00;99.90;;;;;;5065753;28;20040;-84
2022/06/07 01:18:16;;;;;;;21.92;15.98;;;14.00;99.90;;;;;;5044956;28;20035;-84
2022/06/07 01:20:44;;;;;;;25.90;20.40;;;14.00;99.90;;;;;;5031593;28;20044;-84
2022/06/07 01:23:10;;;;;;;24.70;19.27;;;14.00;99.90;;;;;;5032726;28;20075;-84
2022/06/07 01:25:38;;;;;;;24.85;19.30;;;14.00;99.90;;;;;;5048592;28;20475;-84
2022/06/07 01:28:07;;;;;;;25.05;16.80;;;14.00;99.90;;;;;;5074358;28;20036;-84
2022/06/07 01:30:33;;;;;;;21.40;17.45;;;14.10;99.90;;;;;;5047400;28;20044;-84
2022/06/07 01:32:59;;;;;;;27.50;20.08;;;14.10;99.90;;;;;;5030933;28;20039;-84
2022/06/07 01:35:26;;;;;;;25.63;22.52;;;14.10;99.90;;;;;;5065435;28;21264;-84
2022/06/07 01:37:52;;;;;;;27.23;21.52;;;14.10;99.90;;;;;;5047219;28;20078;-84
2022/06/07 01:43:04;;;;;;;16.20;14.07;;;14.10;99.90;;;;;;5047412;28;20044;-83
2022/06/07 01:45:31;;;;;;;21.63;16.92;;;14.10;99.90;;;;;;5048340;28;20047;-83
2022/06/07 01:47:58;;;;;;;24.05;19.67;;;14.10;99.90;;;;;;5016790;28;20043;-84
2022/06/07 01:50:24;;;;;;;21.70;17.98;;;14.10;99.90;;;;;;5069766;28;20054;-84
2022/06/07 01:52:51;;;;;;;25.48;19.58;;;14.10;99.90;;;;;;5047063;28;20028;-83
2022/06/07 01:55:23;;;;;;;20.08;17.02;;;14.10;99.90;;;;;;5076739;28;20482;-83
2022/06/07 01:58:11;;;;;;;24.13;17.88;;;14.10;99.90;;;;;;5065807;28;20036;-82
2022/06/07 02:00:39;;;;;;;26.20;19.63;;;14.20;99.90;;;;;;5051669;28;20039;-82
2022/06/07 02:03:06;;;;;;;26.48;22.17;;;14.10;99.90;;;;;;5068756;28;20479;-82
2022/06/07 02:05:33;;;;;;;30.83;22.00;;;14.10;99.90;;;;;;5059982;28;20036;-81
2022/06/07 02:08:00;;;;;;;26.52;20.63;;;14.10;99.90;;;;;;5023323;28;20396;-82
2022/06/07 02:10:31;;;;;;;24.90;20.13;;;14.10;99.90;;;;;;5018671;28;20035;-82
2022/06/07 02:13:02;;;;;;;20.05;15.82;;;14.10;99.90;;;;;;5035852;28;20039;-82
2022/06/07 02:15:30;;;;;;;29.55;20.92;;;14.00;99.90;;;;;;5048313;28;20040;-83
2022/06/07 02:17:56;;;;;;;24.13;19.45;;;14.00;99.90;;;;;;5027464;28;20024;-83
2022/06/07 02:20:43;;;;;;;24.30;20.05;;;14.00;99.90;;;;;;5060428;28;20055;-83
2022/06/07 02:23:09;;;;;;;27.70;21.02;;;14.00;99.90;;;;;;5030311;28;20407;-82
2022/06/07 02:25:42;;;;;;;25.00;19.67;;;13.90;99.90;;;;;;5051375;28;20024;-83
2022/06/07 02:28:10;;;;;;;;;;;14.00;99.90;;;;;;5074435;28;20031;-83
2022/06/07 02:30:37;;;;;;;26.98;19.17;;;14.00;99.90;;;;;;5065848;28;19915;-83
2022/06/07 02:33:03;;;;;;;27.20;20.80;;;14.00;99.90;;;;;;5077552;28;20031;-83
2022/06/07 02:35:30;;;;;;;27.00;23.20;;;14.00;99.90;;;;;;5062318;28;20036;-83
2022/06/07 02:37:56;;;;;;;35.15;26.05;;;14.00;99.90;;;;;;5012544;28;20033;-83
2022/06/07 02:40:23;;;;;;;29.90;23.88;;;14.00;99.90;;;;;;5045299;28;20043;-83
2022/06/07 02:42:49;;;;;;;32.95;26.25;;;14.00;99.90;;;;;;5013754;28;20024;-82
2022/06/07 02:45:16;;;;;;;34.67;24.63;;;14.00;99.90;;;;;;5031270;28;20027;-82
2022/06/07 02:47:43;;;;;;;30.83;24.60;;;14.00;99.90;;;;;;5048250;28;20048;-82
2022/06/07 02:50:15;;;;;;;26.98;19.40;;;14.00;99.90;;;;;;5049001;28;20367;-82
2022/06/07 02:52:47;;;;;;;31.77;24.97;;;14.00;99.90;;;;;;5044304;28;20024;-83
2022/06/07 02:55:19;;;;;;;25.52;19.40;;;14.00;99.90;;;;;;5064382;28;20391;-83
2022/06/07 02:57:46;;;;;;;26.58;21.42;;;14.00;99.90;;;;;;5028175;28;20051;-82
2022/06/07 03:00:15;;;;;;;35.00;24.60;;;14.00;99.90;;;;;;5031136;28;20032;-83
2022/06/07 03:02:43;;;;;;;28.05;21.90;;;14.00;99.90;;;;;;5045320;28;20028;-83
2022/06/07 03:05:10;;;;;;;29.40;24.85;;;14.00;99.90;;;;;;5046021;28;20711;-82
2022/06/07 03:07:38;;;;;;;35.22;26.27;;;14.00;99.90;;;;;;5041607;28;20035;-83
2022/06/07 03:10:06;;;;;;;34.05;25.98;;;13.90;99.90;;;;;;5078484;28;20470;-82
2022/06/07 03:12:34;;;;;;;30.13;24.40;;;13.90;99.90;;;;;;5046129;28;20032;-82
2022/06/07 03:15:01;;;;;;;29.48;24.83;;;13.90;99.90;;;;;;5078045;28;20030;-83
2022/06/07 03:17:28;;;;;;;27.08;22.05;;;13.90;99.90;;;;;;5028653;28;20487;-83
2022/06/07 03:19:54;;;;;;;30.05;23.92;;;13.90;99.90;;;;;;5045739;28;20039;-83
2022/06/07 03:22:23;;;;;;;31.13;25.45;;;13.90;99.90;;;;;;5032252;28;20043;-83
2022/06/07 03:24:49;;;;;;;28.55;23.30;;;13.90;99.90;;;;;;5061388;28;20474;-83
2022/06/07 03:27:17;;;;;;;29.95;23.48;;;13.90;99.90;;;;;;5074862;28;20059;-83
2022/06/07 03:29:44;;;;;;;29.33;21.17;;;13.90;99.90;;;;;;5038734;28;20047;-84
2022/06/07 03:32:16;;;;;;;30.75;26.23;;;13.90;99.90;;;;;;5063395;28;20035;-86
2022/06/07 03:34:43;;;;;;;26.58;22.33;;;13.90;99.90;;;;;;5029906;28;20047;-85
2022/06/07 03:37:09;;;;;;;27.58;22.48;;;13.90;99.90;;;;;;5028337;28;20036;-83
2022/06/07 03:39:39;;;;;;;35.28;28.48;;;13.90;99.90;;;;;;5045052;28;20047;-80
2022/06/07 03:42:09;;;;;;;30.77;25.23;;;13.90;99.90;;;;;;5077828;28;20387;-83
2022/06/07 03:44:37;;;;;;;27.63;22.48;;;13.90;99.90;;;;;;5044071;28;20036;-83
2022/06/07 03:47:19;;;;;;;33.65;27.85;;;13.90;99.90;;;;;;5033267;28;20426;-83
2022/06/07 03:49:48;;;;;;;33.33;25.10;;;13.90;99.90;;;;;;5047381;28;20051;-83
2022/06/07 03:52:18;;;;;;;30.23;24.70;;;13.90;99.90;;;;;;5061917;28;20028;-81
2022/06/07 03:54:45;;;;;;;31.33;25.73;;;13.90;99.90;;;;;;5058404;28;20039;-84
2022/06/07 03:57:13;;;;;;;33.63;27.88;;;13.90;99.90;;;;;;5044977;28;20028;-86
2022/06/07 03:59:44;;;;;;;27.58;24.38;;;13.90;99.90;;;;;;5048961;28;20036;-87
2022/06/07 04:02:11;;;;;;;33.72;26.80;;;13.90;99.90;;;;;;5060567;28;20033;-82
2022/06/07 04:04:38;;;;;;;32.85;22.63;;;13.90;99.90;;;;;;5045242;28;20040;-87
2022/06/07 04:09:59;;;;;;;31.17;26.13;;;13.90;99.90;;;;;;5061658;28;20478;-83
2022/06/07 04:12:34;;;;;;;31.88;24.17;;;14.00;99.90;;;;;;5049545;28;20407;-88
2022/06/07 04:15:01;;;;;;;27.05;23.40;;;14.00;99.90;;;;;;5052548;28;20033;-84
2022/06/07 04:17:27;;;;;;;26.77;23.58;;;14.00;99.90;;;;;;5045348;28;20043;-84
2022/06/07 04:20:06;;;;;;;27.45;22.30;;;14.00;99.90;;;;;;5066139;28;20070;-85
2022/06/07 04:22:33;;;;;;;20.50;17.70;;;14.00;99.90;;;;;;5053882;28;20404;-85
2022/06/07 04:25:05;;;;;;;25.08;20.60;;;14.00;99.90;;;;;;5066963;28;20407;-85
2022/06/07 04:27:35;;;;;;;29.85;22.38;;;14.10;99.90;;;;;;5047246;28;20046;-85
2022/06/07 04:30:05;;;;;;;28.17;20.70;;;14.10;99.90;;;;;;5064444;28;20029;-85
2022/06/07 04:32:34;;;;;;;27.30;23.42;;;14.10;99.90;;;;;;5065106;28;20060;-85
2022/06/07 04:35:01;;;;;;;20.63;17.52;;;14.10;99.90;;;;;;5049200;28;20041;-85
2022/06/07 04:37:27;;;;;;;31.17;22.77;;;14.10;99.90;;;;;;5017254;28;20043;-86
2022/06/07 04:40:01;;;;;;;22.95;19.60;;;14.20;99.90;;;;;;5068334;28;20040;-85
2022/06/07 04:42:28;;;;;;;31.85;23.98;;;14.20;99.90;;;;;;5050512;28;20032;-85
2022/06/07 04:45:00;;;;;;;29.67;22.33;;;14.30;99.90;;;;;;5068945;28;20040;-85
2022/06/07 04:47:37;;;;;;;31.77;23.02;;;14.30;99.90;;;;;;5048572;28;20047;-84
2022/06/07 04:50:12;;;;;;;31.42;23.23;;;14.30;99.90;;;;;;5051519;28;20490;-85
2022/06/07 04:52:38;;;;;;;32.03;24.05;;;14.40;99.90;;;;;;5047864;28;20352;-81
2022/06/07 04:55:05;;;;;;;25.92;21.77;;;14.40;99.90;;;;;;5034577;28;20044;-82
2022/06/07 04:57:34;;;;;;;30.67;24.08;;;14.50;99.90;;;;;;5015226;28;20020;-88
2022/06/07 05:00:00;;;;;;;28.33;21.70;;;14.50;99.90;;;;;;5033739;28;20029;-83
2022/06/07 05:02:28;;;;;;;23.30;20.48;;;14.60;99.90;;;;;;5048078;28;20039;-85
2022/06/07 05:04:55;;;;;;;24.92;21.70;;;14.60;99.90;;;;;;5014011;28;20032;-83
2022/06/07 05:07:25;;;;;;;24.25;21.30;;;14.60;99.90;;;;;;5047366;28;20028;-84
2022/06/07 05:09:58;;;;;;;32.83;27.17;;;14.70;99.90;;;;;;5067857;28;20047;-84
2022/06/07 05:12:35;;;;;;;31.25;27.42;;;14.60;99.90;;;;;;5047123;28;20483;-84
2022/06/07 05:15:05;;;;;;;26.23;23.02;;;14.60;99.90;;;;;;5054296;28;20052;-84
2022/06/07 05:17:39;;;;;;;29.52;25.80;;;14.60;99.90;;;;;;5046970;28;20036;-84
2022/06/07 05:20:07;;;;;;;31.10;26.40;;;14.60;99.90;;;;;;5080082;28;20036;-83
2022/06/07 05:22:34;;;;;;;25.23;22.73;;;14.50;99.90;;;;;;5061800;28;20043;-83
2022/06/07 05:25:03;;;;;;;25.38;22.77;;;14.50;99.90;;;;;;5069919;28;20039;-83
2022/06/07 05:27:45;;;;;;;25.05;22.20;;;14.50;99.90;;;;;;5036962;28;20032;-83
2022/06/07 05:30:16;;;;;;;24.42;21.92;;;14.50;99.90;;;;;;5067741;28;20039;-83
2022/06/07 05:32:46;;;;;;;25.77;20.17;;;14.50;99.90;;;;;;5059001;28;20035;-83
2022/06/07 05:35:18;;;;;;;30.45;25.40;;;14.50;99.90;;;;;;5064050;28;20041;-83
2022/06/07 05:37:56;;;;;;;26.13;23.23;;;14.50;99.90;;;;;;5075737;28;20028;-81
2022/06/07 05:40:25;;;;;;;26.52;23.83;;;14.40;99.90;;;;;;5031837;28;20038;-81
2022/06/07 05:42:53;;;;;;;29.63;24.10;;;14.40;99.90;;;;;;5047135;28;20047;-80
2022/06/07 05:45:28;;;;;;;29.63;25.83;;;14.40;99.90;;;;;;5068935;28;20032;-81
2022/06/07 05:47:55;;;;;;;30.75;26.30;;;14.50;99.90;;;;;;5079763;28;20039;-81
2022/06/07 05:50:22;;;;;;;27.73;23.58;;;14.50;99.90;;;;;;5049902;28;20035;-80
2022/06/07 05:52:53;;;;;;;24.90;22.27;;;14.50;99.90;;;;;;5064608;28;20486;-81
2022/06/07 05:55:20;;;;;;;29.17;25.25;;;14.60;99.90;;;;;;5049396;28;20039;-81
2022/06/07 05:57:51;;;;;;;29.00;26.00;;;14.60;99.90;;;;;;5048720;28;20032;-81
2022/06/07 06:00:19;;;;;;;26.20;23.02;;;14.70;99.90;;;;;;5047495;28;20028;-81
2022/06/07 06:02:49;;;;;;;23.92;21.35;;;14.80;99.90;;;;;;5060829;28;20688;-81
2022/06/07 06:05:30;;;;;;;27.38;23.35;;;14.80;99.90;;;;;;5050114;28;20042;-81
2022/06/07 06:10:49;;;;;;;32.38;26.48;;;14.90;99.90;;;;;;5047363;28;20500;-80
2022/06/07 06:13:17;;;;;;;25.90;22.75;;;14.90;99.90;;;;;;5045550;28;20036;-80
2022/06/07 06:15:43;;;;;;;25.85;23.00;;;14.90;99.90;;;;;;5061332;28;20036;-80
2022/06/07 06:18:10;;;;;;;26.58;22.05;;;14.90;99.90;;;;;;5014273;28;20039;-80
2022/06/07 06:20:40;;;;;;;27.50;22.90;;;15.00;99.90;;;;;;5031381;28;20051;-80
2022/06/07 06:23:17;;;;;;;26.00;20.83;;;15.10;99.90;;;;;;5048615;28;20040;-81
2022/06/07 06:25:43;;;;;;;23.77;21.00;;;15.10;99.90;;;;;;5016237;28;20063;-81
2022/06/07 06:28:12;;;;;;;24.73;21.52;;;15.20;99.90;;;;;;5048002;28;20032;-81
2022/06/07 06:30:45;;;;;;;25.98;20.90;;;15.30;99.90;;;;;;5049532;28;20047;-81
2022/06/07 06:33:19;;;;;;;21.80;19.00;;;15.30;99.90;;;;;;5045714;28;20039;-81
2022/06/07 06:35:51;;;;;;;26.88;21.00;;;15.30;99.90;;;;;;5060404;28;20330;-81
2022/06/07 06:38:21;;;;;;;24.98;21.05;;;15.30;99.90;;;;;;5075145;28;20024;-81
2022/06/07 06:40:49;;;;;;;19.65;17.65;;;15.30;99.90;;;;;;5079015;28;20355;-81
2022/06/07 06:43:18;;;;;;;22.67;18.75;;;15.30;99.90;;;;;;5046976;28;20047;-81
2022/06/07 06:46:09;;;;;;;22.83;18.98;;;15.40;99.90;;;;;;5066246;28;20039;-81
2022/06/07 06:48:38;;;;;;;23.35;20.13;;;15.40;99.90;;;;;;5046315;28;20032;-81
2022/06/07 06:51:08;;;;;;;24.27;20.30;;;15.50;99.90;;;;;;5012634;28;20036;-81
2022/06/07 06:53:35;;;;;;;20.27;16.60;;;15.60;99.90;;;;;;5060861;28;20048;-81
2022/06/07 06:56:12;;;;;;;27.60;20.25;;;15.70;99.90;;;;;;5034226;28;20036;-81
2022/06/07 06:58:42;;;;;;;;;;;15.70;99.90;;;;;;5044469;28;20028;-81
2022/06/07 07:01:16;;;;;;;24.63;20.02;;;15.80;99.90;;;;;;5028222;28;19919;-81
2022/06/07 07:03:43;;;;;;;20.58;18.23;;;15.90;99.90;;;;;;5058012;28;20016;-81
2022/06/07 07:06:13;;;;;;;24.35;20.60;;;15.90;99.90;;;;;;5062641;28;20367;-81
2022/06/07 07:08:42;;;;;;;24.88;19.52;;;15.90;99.90;;;;;;5079533;28;20399;-81
2022/06/07 07:11:15;;;;;;;20.95;18.58;;;15.80;99.90;;;;;;5063114;28;20434;-81
2022/06/07 07:13:45;;;;;;;21.73;19.05;;;15.80;99.90;;;;;;5078172;28;20027;-81
2022/06/07 07:16:19;;;;;;;21.95;18.75;;;15.80;99.90;;;;;;5077908;28;20024;-81
2022/06/07 07:18:47;;;;;;;20.50;17.40;;;15.80;99.90;;;;;;5042786;28;20479;-81
2022/06/07 07:21:17;;;;;;;21.77;17.63;;;15.80;99.90;;;;;;5045207;28;20040;-81
2022/06/07 07:23:45;;;;;;;24.55;19.55;;;15.70;99.90;;;;;;5063045;28;20048;-81
2022/06/07 07:26:15;;;;;;;26.08;22.10;;;15.60;99.90;;;;;;5060228;28;20035;-81
2022/06/07 07:28:42;;;;;;;22.27;19.15;;;15.60;99.90;;;;;;5075708;28;20027;-81
2022/06/07 07:31:18;;;;;;;27.88;20.42;;;15.50;99.90;;;;;;5061649;28;20038;-81
2022/06/07 07:33:45;;;;;;;20.73;18.63;;;15.60;99.90;;;;;;5057372;28;20380;-81
2022/06/07 07:36:12;;;;;;;25.70;22.90;;;15.70;99.90;;;;;;5030012;28;20040;-81
2022/06/07 07:38:40;;;;;;;24.55;20.45;;;15.80;99.90;;;;;;5042781;28;20574;-81
2022/06/07 07:41:26;;;;;;;22.50;20.25;;;16.00;99.90;;;;;;5046307;28;20490;-81
2022/06/07 07:43:55;;;;;;;23.27;20.88;;;16.20;99.90;;;;;;5079628;28;20467;-81
2022/06/07 07:46:26;;;;;;;24.35;21.73;;;16.30;99.90;;;;;;5078704;28;20033;-81
2022/06/07 07:48:53;;;;;;;23.65;20.92;;;16.30;99.90;;;;;;5055085;28;20037;-80
2022/06/07 07:51:30;;;;;;;22.40;20.10;;;16.30;99.90;;;;;;5043339;28;20040;-81
2022/06/07 07:53:59;;;;;;;21.13;18.40;;;16.30;99.90;;;;;;5076077;28;20368;-81
2022/06/07 07:56:26;;;;;;;20.05;17.02;;;16.30;99.90;;;;;;5058324;28;20047;-81
2022/06/07 07:58:54;;;;;;;25.27;20.58;;;16.40;99.90;;;;;;5027252;28;20475;-81
2022/06/07 08:01:23;;;;;;;22.10;19.25;;;16.40;99.90;;;;;;5049569;28;20035;-81
2022/06/07 08:03:52;;;;;;;16.08;14.45;;;16.50;99.90;;;;;;5057793;28;20051;-81
2022/06/07 08:06:26;;;;;;;18.05;16.25;;;16.70;99.90;;;;;;5046727;28;20086;-81
2022/06/07 08:08:55;;;;;;;21.67;17.67;;;16.70;99.90;;;;;;5059311;28;20028;-81
2022/06/07 08:11:24;;;;;;;15.50;13.40;;;16.60;99.90;;;;;;5044468;28;20493;-81
2022/06/07 08:13:50;;;;;;;20.05;17.92;;;16.70;99.90;;;;;;5078133;28;20039;-81
2022/06/07 08:16:18;;;;;;;22.27;17.40;;;16.90;99.90;;;;;;5077233;28;20035;-80
2022/06/07 08:18:45;;;;;;;19.98;16.25;;;16.90;99.90;;;;;;5043688;28;20463;-81
2022/06/07 08:21:22;;;;;;;19.83;17.63;;;16.80;99.90;;;;;;5059692;28;20491;-80
2022/06/07 08:23:49;;;;;;;19.20;16.00;;;16.80;99.90;;;;;;5059146;28;20047;-80
2022/06/07 08:26:17;;;;;;;17.45;15.70;;;16.90;99.90;;;;;;5046442;28;20035;-81
2022/06/07 08:28:44;;;;;;;15.95;14.35;;;17.00;99.90;;;;;;5059920;28;20020;-80
2022/06/07 08:31:17;;;;;;;16.08;13.07;;;17.00;99.90;;;;;;5055359;28;20293;-77
2022/06/07 08:39:18;;;;;;;14.07;12.55;;;17.20;99.90;;;;;;5079369;28;20020;-77
2022/06/07 08:41:50;;;;;;;12.32;11.02;;;17.40;99.90;;;;;;5047057;28;20028;-77
2022/06/07 08:44:31;;;;;;;11.25;10.15;;;17.40;99.90;;;;;;5059251;28;20033;-77
2022/06/07 08:47:07;;;;;;;14.20;12.00;;;17.30;99.90;;;;;;5056996;28;20020;-77
2022/06/07 08:49:34;;;;;;;14.60;12.98;;;17.20;99.90;;;;;;5058207;28;20016;-77
2022/06/07 08:52:11;;;;;;;12.05;10.85;;;17.30;99.90;;;;;;5059466;28;20029;-77
2022/06/07 08:54:39;;;;;;;13.43;11.63;;;17.40;99.90;;;;;;5041709;28;20043;-77
2022/06/07 08:57:24;;;;;;;11.35;9.65;;;17.50;99.90;;;;;;5044077;28;20518;-77
2022/06/07 09:00:18;;;;;;;8.95;8.07;;;17.60;99.90;;;;;;5060263;28;20024;-77
2022/06/07 09:03:27;;;;;;;11.23;9.88;;;17.70;99.90;;;;;;5076429;28;20025;-77
2022/06/07 09:05:55;;;;;;;9.25;7.97;;;18.00;99.90;;;;;;5059053;28;20040;-77
2022/06/07 09:08:23;;;;;;;8.75;7.68;;;18.20;99.90;;;;;;5060291;28;20024;-77
2022/06/07 09:13:37;;;;;;;11.52;8.38;;;18.30;99.90;;;;;;5078065;28;20024;-77
2022/06/07 09:16:04;;;;;;;11.63;9.52;;;18.10;99.90;;;;;;5046898;28;20058;-77
2022/06/07 09:18:33;;;;;;;8.63;7.55;;;18.00;99.90;;;;;;5045291;28;20119;-81
2022/06/07 09:21:21;;;;;;;11.07;9.93;;;17.90;99.90;;;;;;5032021;28;20028;-81
2022/06/07 09:23:50;;;;;;;9.95;8.45;;;17.90;99.90;;;;;;5051965;28;20043;-81
2022/06/07 09:26:36;;;;;;;10.00;9.00;;;17.80;99.90;;;;;;5089457;28;20043;-81
2022/06/07 09:29:23;;;;;;;10.75;9.02;;;17.90;99.90;;;;;;5079623;28;20039;-82
2022/06/07 09:31:51;;;;;;;11.93;10.30;;;18.00;99.90;;;;;;5056305;28;20039;-82
2022/06/07 09:34:27;;;;;;;13.80;11.73;;;18.20;99.90;;;;;;5054752;28;20367;-81
2022/06/07 09:37:13;;;;;;;12.88;10.80;;;18.20;99.90;;;;;;5067542;28;20032;-81
2022/06/07 09:39:43;;;;;;;10.50;9.50;;;18.10;99.90;;;;;;5085529;28;20036;-81
2022/06/07 09:42:26;;;;;;;12.13;10.90;;;17.90;99.90;;;;;;5057891;28;20032;-81
2022/06/07 09:45:02;;;;;;;13.20;11.52;;;17.80;99.90;;;;;;5066589;28;20486;-81
2022/06/07 09:47:31;;;;;;;10.48;9.13;;;17.80;99.90;;;;;;5098551;28;20039;-81
2022/06/07 09:50:37;;;;;;;12.73;10.30;;;17.80;99.90;;;;;;5066613;28;20035;-81
2022/06/07 09:53:16;;;;;;;18.27;14.27;;;17.80;99.90;;;;;;5066619;28;20063;-81
2022/06/07 09:56:06;;;;;;;16.60;13.75;;;17.70;99.90;;;;;;5078489;28;20497;-81
2022/06/07 09:59:07;;;;;;;18.65;13.93;;;17.80;99.90;;;;;;5077338;28;20024;-82
2022/06/07 10:01:49;;;;;;;18.45;16.10;;;17.90;99.90;;;;;;5061797;28;20040;-81
2022/06/07 10:04:26;;;;;;;;;;;18.00;99.90;;;;;;5047633;28;20036;-81
2022/06/07 10:07:22;;;;;;;19.90;14.88;;;18.20;99.90;;;;;;5060440;28;20375;-81
2022/06/07 10:10:12;;;;;;;17.13;15.40;;;18.50;99.90;;;;;;5039667;28;20044;-81
2022/06/07 10:12:53;;;;;;;17.80;15.18;;;18.80;99.90;;;;;;5059808;28;20036;-81
2022/06/07 10:15:40;;;;;;;18.50;16.58;;;19.10;99.90;;;;;;5078411;28;20032;-82
2022/06/07 10:18:13;;;;;;;18.88;16.95;;;19.20;99.90;;;;;;5079578;28;20089;-82
2022/06/07 10:21:01;;;;;;;17.23;14.48;;;19.20;99.90;;;;;;5048364;28;20028;-81
2022/06/07 10:23:52;;;;;;;15.90;14.23;;;19.10;99.90;;;;;;5059506;28;20039;-82
2022/06/07 10:26:36;;;;;;;14.90;12.65;;;18.90;99.90;;;;;;5081237;28;20043;-81
2022/06/07 10:29:03;;;;;;;13.63;12.23;;;18.80;99.90;;;;;;5078493;28;20040;-81
2022/06/07 10:31:47;;;;;;;16.58;14.90;;;18.70;99.90;;;;;;5079598;28;20035;-82
2022/06/07 10:34:23;;;;;;;15.32;13.82;;;18.70;99.90;;;;;;5061264;28;20040;-81
2022/06/07 10:37:14;;;;;;;14.65;13.25;;;18.70;99.90;;;;;;5058977;28;20035;-81
2022/06/07 10:40:09;;;;;;;17.38;15.13;;;18.70;99.90;;;;;;5042934;28;20424;-81
2022/06/07 10:42:46;;;;;;;13.35;12.05;;;18.80;99.90;;;;;;5079021;28;20039;-81
2022/06/07 10:45:21;;;;;;;13.27;11.88;;;18.80;99.90;;;;;;5064450;28;20478;-81
2022/06/07 10:48:19;;;;;;;15.07;13.48;;;18.90;99.90;;;;;;5059885;28;20577;-81
2022/06/07 10:52:20;;;;;;;15.57;13.80;;;19.20;99.90;;;;;;5079351;28;20107;-77
2022/06/07 10:54:06;;;;;;;13.68;12.13;;;19.60;99.90;;;;;;5095544;28;20455;-77
2022/06/07 10:56:42;;;;;;;14.10;12.07;;;19.90;99.90;;;;;;5061110;28;20028;-77
2022/06/07 10:59:20;;;;;;;13.05;11.05;;;20.00;99.90;;;;;;5057822;28;20017;-77
2022/06/07 11:02:03;;;;;;;15.35;11.40;;;20.10;99.90;;;;;;5074340;28;20016;-77
2022/06/07 11:10:40;;;;;;;13.93;11.70;;;20.30;99.90;;;;;;5075037;28;20020;-77
2022/06/07 11:13:17;;;;;;;13.18;11.07;;;20.40;99.90;;;;;;5031598;28;20391;-77
2022/06/07 11:16:09;;;;;;;12.70;11.43;;;20.50;99.90;;;;;;5059931;28;20051;-77
2022/06/07 11:18:40;;;;;;;10.80;9.75;;;20.50;99.90;;;;;;5075922;28;20027;-77
2022/06/07 11:21:06;;;;;;;12.23;10.32;;;20.40;99.90;;;;;;5061848;28;20051;-77
2022/06/07 11:23:45;;;;;;;10.65;9.65;;;20.30;99.90;;;;;;5042447;28;20399;-77
2022/06/07 11:26:16;;;;;;;11.43;10.23;;;20.10;99.90;;;;;;5079333;28;20024;-77
2022/06/07 11:28:44;;;;;;;11.68;10.55;;;19.90;99.90;;;;;;5072821;28;20113;-77
2022/06/07 11:31:23;;;;;;;13.85;11.88;;;19.70;99.90;;;;;;5077353;28;20029;-77
2022/06/07 11:33:53;;;;;;;12.93;11.18;;;19.60;99.90;;;;;;5058673;28;20475;-77
2022/06/07 11:36:35;;;;;;;14.55;11.98;;;19.50;99.90;;;;;;5061839;28;20047;-77
2022/06/07 11:39:18;;;;;;;;;;;19.60;99.90;;;;;;5061158;28;20020;-77
2022/06/07 11:41:48;;;;;;;13.52;12.20;;;19.70;99.90;;;;;;5063437;28;19908;-77
2022/06/07 11:44:34;;;;;;;13.18;11.38;;;20.40;99.90;;;;;;5044922;28;20021;-77
2022/06/07 11:47:22;;;;;;;13.80;10.43;;;21.40;99.90;;;;;;5042911;28;20672;-77
2022/06/07 11:49:51;;;;;;;11.02;10.00;;;22.40;99.90;;;;;;5040133;28;20020;-78
2022/06/07 11:52:23;;;;;;;10.93;9.20;;;23.20;99.90;;;;;;5044291;28;20047;-77
2022/06/07 11:54:56;;;;;;;9.57;8.70;;;23.80;99.90;;;;;;5060669;28;20020;-77
2022/06/07 11:57:35;;;;;;;9.32;7.78;;;24.40;99.90;;;;;;5059791;28;20321;-77
2022/06/07 12:00:20;;;;;;;10.23;8.77;;;25.00;99.90;;;;;;5043803;28;20036;-80
2022/06/07 12:03:01;;;;;;;8.18;6.70;;;25.40;99.90;;;;;;5041781;28;20483;-80
2022/06/07 12:05:32;;;;;;;8.45;6.90;;;25.80;99.90;;;;;;5060659;28;20028;-79
2022/06/07 12:08:25;;;;;;;8.25;6.45;;;26.20;99.90;;;;;;5042687;28;20024;-79
2022/06/07 12:11:20;;;;;;;7.18;6.30;;;26.60;99.90;;;;;;5057088;28;20020;-77
2022/06/07 12:14:05;;;;;;;7.80;6.97;;;27.20;99.90;;;;;;5058975;28;20043;-77
2022/06/07 12:16:37;;;;;;;8.40;5.95;;;27.40;99.90;;;;;;5045301;28;20472;-80
2022/06/07 12:19:06;;;;;;;6.85;6.05;;;27.50;99.10;;;;;;5077821;28;20020;-80
2022/06/07 12:21:41;;;;;;;6.70;5.72;;;27.50;98.50;;;;;;5060079;28;20027;-78
2022/06/07 12:24:16;;;;;;;6.25;5.53;;;27.30;98.30;;;;;;5074291;28;20055;-80
2022/06/07 12:26:46;;;;;;;8.43;5.78;;;27.50;97.40;;;;;;5043963;28;20339;-80
2022/06/07 12:29:12;;;;;;;6.60;5.82;;;28.20;96.80;;;;;;5059226;28;20383;-80
2022/06/07 12:31:58;;;;;;;4.75;3.20;;;28.10;95.40;;;;;;5077065;28;20498;-80
2022/06/07 12:34:34;;;;;;;4.80;3.92;;;27.80;94.70;;;;;;5060979;28;20031;-80
2022/06/07 12:37:20;;;;;;;3.97;3.08;;;27.70;95.10;;;;;;5037477;28;20036;-78
2022/06/07 12:39:58;;;;;;;3.85;3.45;;;28.10;94.80;;;;;;5076547;28;20015;-80
2022/06/07 12:42:29;;;;;;;5.60;3.92;;;28.20;93.90;;;;;;5046267;28;20024;-79
2022/06/07 12:45:18;;;;;;;6.55;4.22;;;27.50;94.20;;;;;;5049036;28;20031;-79
2022/06/07 12:47:46;;;;;;;5.30;4.53;;;26.70;94.50;;;;;;5044203;28;20024;-79
2022/06/07 12:50:28;;;;;;;4.60;3.92;;;25.90;95.20;;;;;;5079193;28;20367;-79
2022/06/07 12:52:55;;;;;;;5.85;4.43;;;25.60;95.70;;;;;;5061359;28;20044;-79
2022/06/07 12:55:27;;;;;;;5.07;4.57;;;25.90;95.30;;;;;;5064034;28;20384;-79
2022/06/07 12:57:56;;;;;;;;;;;26.00;95.10;;;;;;5077067;28;20379;-80
2022/06/07 13:00:34;;;;;;;5.25;4.50;;;25.80;94.40;;;;;;5039545;28;19904;-79
2022/06/07 13:03:13;;;;;;;5.72;4.28;;;26.30;94.80;;;;;;5097305;28;20367;-80
2022/06/07 13:05:40;;;;;;;4.95;4.50;;;27.20;93.00;;;;;;5065188;28;20399;-79
2022/06/07 13:08:18;;;;;;;5.55;5.10;;;26.90;92.50;;;;;;5062279;28;20027;-79
2022/06/07 13:10:44;;;;;;;5.10;4.38;;;26.50;92.50;;;;;;5098436;28;20699;-79
2022/06/07 13:13:24;;;;;;;4.50;4.10;;;26.00;92.70;;;;;;5027691;28;20025;-79
2022/06/07 13:15:58;;;;;;;5.35;4.85;;;25.50;93.70;;;;;;5084128;28;23103;-79
2022/06/07 13:18:34;;;;;;;5.65;4.78;;;25.10;93.90;;;;;;5066687;28;20024;-80
2022/06/07 13:21:36;;;;;;;5.38;3.72;;;25.10;94.30;;;;;;5095914;28;20451;-80
2022/06/07 13:24:03;;;;;;;5.13;3.30;;;25.40;94.60;;;;;;5077758;28;20040;-80
2022/06/07 13:26:43;;;;;;;5.45;3.47;;;25.60;94.30;;;;;;5070235;28;20043;-80